createdAt,value
2022-11-19T00:03:49.886Z,9.93
2022-11-19T00:13:53.753Z,12.23
2022-11-19T00:23:55.184Z,12.10
2022-11-19T00:33:56.587Z,12.77
2022-11-19T00:43:57.975Z,14.32
2022-11-19T00:53:59.393Z,11.57
2022-11-19T01:04:00.807Z,9.57
2022-11-19T01:14:02.180Z,13.25
2022-11-19T01:24:03.562Z,12.68
2022-11-19T01:34:05.074Z,17.25
2022-11-19T01:44:06.628Z,18.45
2022-11-19T01:54:08.118Z,16.90
2022-11-19T02:04:09.571Z,14.27
2022-11-19T02:14:10.969Z,19.60
2022-11-19T02:24:12.346Z,16.38
2022-11-19T02:34:13.779Z,17.50
2022-11-19T02:44:34.019Z,20.77
2022-11-19T02:54:35.505Z,16.63
2022-11-19T03:04:36.926Z,16.70
2022-11-19T03:14:57.208Z,18.02
2022-11-19T03:24:58.537Z,17.25
2022-11-19T03:34:59.950Z,14.48
2022-11-19T03:45:01.370Z,15.60
2022-11-19T03:55:02.760Z,14.52
2022-11-19T04:05:04.125Z,20.33
2022-11-19T04:15:05.538Z,13.63
2022-11-19T04:25:06.938Z,13.68
2022-11-19T04:35:08.348Z,14.55
2022-11-19T04:45:09.756Z,10.68
2022-11-19T04:55:11.174Z,11.35
2022-11-19T05:05:12.556Z,13.68
2022-11-19T05:15:14.150Z,12.05
2022-11-19T05:25:15.575Z,10.45
2022-11-19T05:35:16.870Z,9.25
2022-11-19T05:45:18.284Z,10.80
2022-11-19T05:55:20.862Z,10.88
2022-11-19T06:05:22.307Z,8.60
2022-11-19T06:15:23.716Z,11.23
2022-11-19T06:25:25.142Z,11.52
2022-11-19T06:35:27.733Z,9.43
2022-11-19T06:45:29.186Z,12.75
2022-11-19T06:55:30.556Z,10.68
2022-11-19T07:05:32.303Z,11.50
2022-11-19T07:15:33.751Z,9.68
2022-11-19T07:25:35.162Z,11.80
2022-11-19T07:35:36.535Z,11.18
2022-11-19T07:45:37.885Z,13.50
2022-11-19T07:55:39.338Z,12.73
2022-11-19T08:05:40.953Z,13.68
2022-11-19T08:15:42.282Z,15.65
2022-11-19T08:25:44.274Z,13.13
2022-11-19T08:35:45.635Z,10.70
2022-11-19T08:45:47.052Z,15.43
2022-11-19T08:55:48.458Z,21.30
2022-11-19T09:05:49.844Z,17.70
2022-11-19T09:15:51.330Z,11.50
2022-11-19T09:25:52.722Z,14.85
2022-11-19T09:35:54.175Z,8.23
2022-11-19T09:45:55.636Z,18.23
2022-11-19T09:55:57.112Z,8.05
2022-11-19T10:05:58.487Z,7.03
2022-11-19T10:15:59.941Z,11.75
2022-11-19T10:26:01.349Z,8.27
2022-11-19T10:36:02.876Z,8.15
2022-11-19T10:46:04.310Z,19.20
2022-11-19T10:56:05.750Z,9.38
2022-11-19T11:06:09.997Z,12.02
2022-11-19T11:16:11.573Z,11.13
2022-11-19T11:26:13.032Z,9.95
2022-11-19T11:36:14.466Z,6.80
2022-11-19T11:46:15.712Z,6.82
2022-11-19T11:56:17.167Z,7.70
2022-11-19T12:06:18.600Z,9.70
2022-11-19T12:16:19.941Z,7.30
2022-11-19T12:26:21.383Z,19.45
2022-11-19T12:36:22.647Z,18.77
2022-11-19T12:46:23.966Z,20.13
2022-11-19T12:56:25.414Z,15.95
2022-11-19T13:06:26.910Z,14.45
2022-11-19T13:16:28.279Z,13.65
2022-11-19T13:26:29.670Z,11.82
2022-11-19T13:36:31.046Z,12.07
2022-11-19T13:46:32.491Z,16.75
2022-11-19T13:56:33.893Z,13.32
2022-11-19T14:06:35.285Z,12.30
2022-11-19T14:16:55.649Z,14.52
2022-11-19T14:26:57.151Z,11.38
2022-11-19T14:36:58.517Z,10.50
2022-11-19T14:46:59.911Z,11.30
2022-11-19T14:57:02.876Z,13.60
2022-11-19T15:07:04.401Z,18.70
2022-11-19T15:17:05.807Z,10.77
2022-11-19T15:27:07.092Z,11.65
2022-11-19T15:37:08.377Z,10.63
2022-11-19T15:47:09.873Z,13.85
2022-11-19T15:57:17.489Z,14.30
2022-11-19T16:39:50.210Z,13.27
2022-11-19T16:49:54.185Z,11.85
2022-11-19T16:59:58.558Z,16.80
2022-11-19T17:31:23.867Z,20.23
2022-11-19T18:46:24.570Z,16.42
2022-11-19T18:56:26.008Z,14.57
2022-11-19T19:06:27.384Z,18.40
2022-11-19T19:16:28.812Z,19.90
2022-11-19T19:26:30.129Z,21.75
2022-11-19T19:36:31.532Z,21.10
2022-11-19T19:46:32.885Z,13.57
2022-11-19T19:56:34.350Z,16.00
2022-11-19T20:06:35.742Z,14.82
2022-11-19T20:16:37.056Z,16.67
2022-11-19T20:26:38.759Z,15.93
2022-11-19T20:36:40.101Z,22.33
2022-11-19T20:46:41.622Z,20.25
2022-11-19T20:56:43.050Z,18.65
2022-11-19T21:06:44.468Z,20.05
2022-11-19T21:16:45.802Z,21.13
2022-11-19T21:26:47.312Z,23.15
2022-11-19T21:36:48.725Z,20.25
2022-11-19T21:46:50.207Z,22.23
2022-11-19T21:56:51.616Z,22.13
2022-11-19T22:06:52.987Z,29.27
2022-11-19T22:16:54.766Z,20.23
2022-11-19T22:26:56.223Z,19.52
2022-11-19T22:36:57.514Z,18.60
2022-11-19T22:47:00.986Z,21.70
2022-11-19T22:57:02.464Z,23.08
2022-11-19T23:07:03.932Z,22.38
2022-11-19T23:17:05.350Z,21.08
2022-11-19T23:27:19.339Z,22.42
2022-11-19T23:37:23.530Z,20.05
